Time;durP1;ratioP1;P1;durP2;ratioP2;P2;SDS_P1;SDS_P2;PMS_P1;PMS_P2;Temp;Humidity;BMP_temperature;BMP_pressure;BME280_temperature;BME280_humidity;BME280_pressure;Samples;Min_cycle;Max_cycle;Signal;HPM_P1;HPM_P2
2021/12/10 00:01:50;;;;;;;;;5.00;3.75;;;;;5.74;75.93;98730.59;5062970;27;45328;-62
2021/12/10 00:04:17;;;;;;;;;7.50;7.00;;;;;5.75;76.08;98732.22;5097392;27;45482;-62
2021/12/10 00:06:54;;;;;;;;;2.00;2.00;;;;;5.76;76.02;98726.03;5097752;27;45666;-61
2021/12/10 00:09:27;;;;;;;;;2.00;2.00;;;;;5.79;75.89;98726.59;5098053;27;45335;-62
2021/12/10 00:11:55;;;;;;;;;4.25;3.50;;;;;5.79;75.99;98718.75;5098151;27;45241;-61
2021/12/10 00:14:25;;;;;;;;;3.50;3.50;;;;;5.82;75.98;98719.44;5097915;27;45529;-61
2021/12/10 00:16:50;;;;;;;;;3.00;2.00;;;;;5.82;75.81;98704.59;5079901;27;45389;-61
2021/12/10 00:19:26;;;;;;;;;8.00;5.75;;;;;5.83;75.80;98679.38;5097174;27;64266;-62
2021/12/10 00:21:51;;;;;;;;;5.00;3.50;;;;;5.84;76.01;98676.59;5097971;27;45224;-61
2021/12/10 00:24:17;;;;;;;;;0.00;0.00;;;;;5.84;75.72;98663.56;5097988;27;45220;-61
2021/12/10 00:26:44;;;;;;;;;3.75;3.25;;;;;5.83;75.87;98642.88;5096536;27;45267;-61
2021/12/10 00:29:10;;;;;;;;;1.75;1.00;;;;;5.83;75.96;98635.06;5097687;27;46015;-61
2021/12/10 00:32:00;;;;;;;;;2.00;2.00;;;;;5.82;75.94;98625.59;5097991;27;45367;-61
2021/12/10 00:34:32;;;;;;;;;2.00;1.00;;;;;5.78;75.94;98614.66;5097829;27;45296;-61
2021/12/10 00:37:00;;;;;;;;;2.00;1.25;;;;;5.75;76.25;98605.38;5096396;27;45453;-61
2021/12/10 00:39:29;;;;;;;;;2.25;1.25;;;;;5.74;76.16;98598.50;5079237;27;45193;-61
2021/12/10 00:41:55;;;;;;;;;3.00;1.00;;;;;5.70;76.36;98583.31;5097365;27;45679;-61
2021/12/10 00:44:20;;;;;;;;;3.00;3.00;;;;;5.67;76.10;98563.63;5097760;27;45375;-61
2021/12/10 00:46:45;;;;;;;;;2.25;2.00;;;;;5.64;76.42;98556.91;5096197;27;46456;-61
2021/12/10 00:49:11;;;;;;;;;1.75;1.00;;;;;5.63;76.29;98549.25;5096398;27;71969;-61
2021/12/10 00:51:37;;;;;;;;;1.00;1.00;;;;;5.59;76.41;98538.31;5079360;27;45759;-61
2021/12/10 00:54:04;;;;;;;;;2.00;2.00;;;;;5.57;76.39;98534.22;5097322;27;45373;-61
2021/12/10 00:56:29;;;;;;;;;3.00;1.00;;;;;5.54;76.33;98551.00;5097329;27;45389;-61
2021/12/10 00:58:54;;;;;;;;;2.00;1.00;;;;;5.49;76.29;98535.00;5097167;27;45386;-61
2021/12/10 01:01:23;;;;;;;;;2.00;1.00;;;;;5.47;76.66;98532.53;5096336;27;68487;-62
2021/12/10 01:03:52;;;;;;;;;2.50;1.00;;;;;5.49;76.60;98522.78;5097359;27;45231;-62
2021/12/10 01:06:18;;;;;;;;;1.75;1.25;;;;;5.48;76.64;98512.53;5096960;27;50121;-61
2021/12/10 01:08:45;;;;;;;;;0.00;0.00;;;;;5.48;76.77;98505.53;5097063;27;45479;-62
2021/12/10 01:11:32;;;;;;;;;1.00;1.00;;;;;5.46;76.78;98497.03;5096991;27;45376;-61
2021/12/10 01:14:08;;;;;;;;;0.50;0.00;;;;;5.43;76.79;98501.75;5097238;27;45422;-61
2021/12/10 01:25:06;;;;;;;;;0.00;0.00;;;;;5.35;77.29;98438.22;5097223;27;45378;-61
2021/12/10 01:27:34;;;;;;;;;2.00;0.75;;;;;5.35;77.30;98448.66;5096135;27;45361;-61
2021/12/10 01:30:15;;;;;;;;;0.00;0.00;;;;;5.32;77.25;98435.09;5098726;27;45843;-60
2021/12/10 01:32:43;;;;;;;;;2.00;0.00;;;;;5.31;77.38;98426.47;5100752;27;45288;-62
2021/12/10 01:35:11;;;;;;;;;0.00;0.00;;;;;5.32;77.33;98422.91;5100628;27;45212;-61
2021/12/10 01:37:36;;;;;;;;;4.00;0.75;;;;;5.31;77.52;98425.66;5100312;27;45448;-62
2021/12/10 01:40:02;;;;;;;;;0.00;0.00;;;;;5.28;77.42;98405.97;5081518;27;57374;-61
2021/12/10 01:44:55;;;;;;;;;0.00;0.00;;;;;5.31;77.51;98394.41;5100559;27;45329;-61
2021/12/10 01:47:25;;;;;;;;;0.00;0.00;;;;;5.31;77.56;98395.25;5100244;27;45547;-61
2021/12/10 01:49:51;;;;;;;;;1.00;0.00;;;;;5.32;77.56;98372.59;5100130;27;46193;-61
2021/12/10 01:52:17;;;;;;;;;0.00;0.00;;;;;5.32;77.34;98362.19;5099782;27;55823;-61
2021/12/10 01:54:48;;;;;;;;;0.00;0.00;;;;;5.30;77.34;98364.16;5082163;27;45525;-61
2021/12/10 01:57:14;;;;;;;;;2.75;1.75;;;;;5.25;77.57;98362.00;5098930;27;45443;-61
2021/12/10 01:59:39;;;;;;;;;0.00;0.00;;;;;5.26;77.49;98368.03;5099863;27;45477;-61
2021/12/10 02:02:11;;;;;;;;;1.25;0.00;;;;;5.26;77.81;98347.22;5100309;27;45422;-61
2021/12/10 02:04:38;;;;;;;;;1.75;1.00;;;;;5.26;77.72;98347.22;5081951;27;45431;-61
2021/12/10 02:07:04;;;;;;;;;0.00;0.00;;;;;5.29;77.81;98350.31;5100057;27;45301;-61
2021/12/10 02:09:30;;;;;;;;;2.75;0.00;;;;;5.31;77.61;98342.31;5099967;27;45929;-61
2021/12/10 02:11:55;;;;;;;;;0.00;0.00;;;;;5.32;77.76;98341.34;5099379;27;60121;-61
2021/12/10 02:14:20;;;;;;;;;1.25;0.00;;;;;5.32;77.87;98359.59;5098670;27;45260;-61
2021/12/10 02:16:46;;;;;;;;;0.00;0.00;;;;;5.31;77.24;98369.19;5081633;27;46146;-61
2021/12/10 02:19:12;;;;;;;;;2.00;0.25;;;;;5.34;77.59;98363.69;5081509;27;45359;-62
2021/12/10 02:21:39;;;;;;;;;0.00;0.00;;;;;5.39;77.91;98357.19;5081755;27;45352;-61
2021/12/10 02:24:05;;;;;;;;;4.00;1.00;;;;;5.43;77.73;98350.69;5099906;27;45553;-61
2021/12/10 02:26:40;;;;;;;;;0.00;0.00;;;;;5.45;77.60;98341.75;5099547;27;45382;-61
2021/12/10 02:29:06;;;;;;;;;0.00;0.00;;;;;5.47;77.34;98315.56;5099756;27;45256;-62
2021/12/10 02:31:31;;;;;;;;;1.00;0.00;;;;;5.46;77.40;98313.91;5081655;27;45186;-61
2021/12/10 02:33:57;;;;;;;;;0.00;0.00;;;;;5.46;77.03;98296.50;5099220;27;55913;-62
2021/12/10 02:36:23;;;;;;;;;0.00;0.00;;;;;5.44;77.19;98305.44;5098475;27;71472;-61
2021/12/10 02:38:50;;;;;;;;;0.00;0.00;;;;;5.43;77.28;98302.00;5098124;27;45312;-61
2021/12/10 02:41:16;;;;;;;;;0.00;0.00;;;;;5.43;77.40;98298.59;5081256;27;45378;-61
2021/12/10 02:43:42;;;;;;;;;0.00;0.00;;;;;5.45;77.31;98307.88;5099322;27;45347;-62
2021/12/10 02:46:07;;;;;;;;;0.00;0.00;;;;;5.46;77.15;98293.88;5099352;27;45511;-62
2021/12/10 02:48:33;;;;;;;;;0.25;0.00;;;;;5.47;77.34;98279.88;5098730;27;62392;-61
2021/12/10 02:50:59;;;;;;;;;0.00;0.00;;;;;5.48;77.35;98284.13;5099532;27;45461;-61
2021/12/10 02:53:28;;;;;;;;;0.50;0.50;;;;;5.51;77.29;98285.59;5099313;27;45302;-62
2021/12/10 02:55:54;;;;;;;;;0.25;0.00;;;;;5.52;77.44;98286.41;5099337;27;46483;-62
2021/12/10 02:58:20;;;;;;;;;0.50;0.50;;;;;5.54;77.08;98282.69;5099182;27;45778;-62
2021/12/10 03:00:52;;;;;;;;;0.50;0.00;;;;;5.56;77.17;98272.09;5099250;27;45582;-62
2021/12/10 03:03:17;;;;;;;;;0.50;0.50;;;;;5.55;77.08;98271.28;5099403;27;45217;-61
2021/12/10 03:05:43;;;;;;;;;0.00;0.00;;;;;5.54;77.16;98263.63;5098936;27;46407;-62
2021/12/10 03:08:08;;;;;;;;;0.00;0.00;;;;;5.56;77.15;98259.91;5096883;27;68954;-61
2021/12/10 03:10:34;;;;;;;;;0.00;0.00;;;;;5.59;76.99;98262.16;5098477;27;61127;-61
2021/12/10 03:13:00;;;;;;;;;0.00;0.00;;;;;5.62;77.23;98253.22;5097946;27;45609;-62
2021/12/10 03:15:26;;;;;;;;;0.00;0.00;;;;;5.62;77.24;98255.81;5096789;27;70497;-62
2021/12/10 03:17:51;;;;;;;;;0.00;0.00;;;;;5.66;77.08;98246.72;5080745;27;45335;-61
2021/12/10 03:20:19;;;;;;;;;0.75;0.00;;;;;5.68;77.40;98239.56;5096862;27;65034;-61
2021/12/10 03:22:46;;;;;;;;;0.00;0.00;;;;;5.72;77.03;98233.06;5080656;27;45688;-61
2021/12/10 03:25:14;;;;;;;;;0.00;0.00;;;;;5.75;77.33;98237.94;5098787;27;46049;-61
2021/12/10 03:27:39;;;;;;;;;0.00;0.00;;;;;5.78;77.13;98239.41;5098578;27;47733;-62
2021/12/10 03:30:07;;;;;;;;;0.00;0.00;;;;;5.81;77.35;98238.28;5098877;27;45307;-62
2021/12/10 03:32:33;;;;;;;;;0.00;0.00;;;;;5.84;77.24;98241.34;5098838;27;45265;-61
2021/12/10 03:35:00;;;;;;;;;0.00;0.00;;;;;5.89;77.43;98240.84;5098472;27;46125;-61
2021/12/10 03:37:27;;;;;;;;;9.00;9.00;;;;;5.92;77.26;98240.53;5098583;27;45380;-61
2021/12/10 03:39:52;;;;;;;;;1.75;1.00;;;;;5.96;77.34;98228.00;5098503;27;45488;-62
2021/12/10 03:42:17;;;;;;;;;0.00;0.00;;;;;6.01;77.34;98233.56;5097406;27;69015;-61
2021/12/10 03:44:43;;;;;;;;;1.25;0.00;;;;;6.05;77.29;98229.66;5098565;27;46161;-61
2021/12/10 03:47:08;;;;;;;;;0.00;0.00;;;;;6.09;77.16;98226.56;5097663;27;67635;-61
2021/12/10 03:49:35;;;;;;;;;1.00;0.00;;;;;6.13;77.32;98226.22;5098551;27;45804;-61
2021/12/10 03:52:00;;;;;;;;;0.00;0.00;;;;;6.16;77.23;98220.69;5097520;27;45388;-61
2021/12/10 03:54:26;;;;;;;;;0.50;0.50;;;;;6.21;77.27;98223.63;5098128;27;47775;-61
2021/12/10 03:56:51;;;;;;;;;0.00;0.00;;;;;6.22;77.14;98218.22;5098204;27;45363;-62
2021/12/10 03:59:18;;;;;;;;;1.00;1.00;;;;;6.24;77.08;98224.09;5098289;27;45322;-61
2021/12/10 04:01:45;;;;;;;;;2.00;0.75;;;;;6.27;77.14;98225.56;5098406;27;45313;-62
2021/12/10 04:04:13;;;;;;;;;1.00;1.00;;;;;6.31;77.04;98233.84;5098050;27;46497;-61
2021/12/10 04:06:39;;;;;;;;;1.00;1.00;;;;;6.34;77.14;98229.16;5097998;27;46635;-62
2021/12/10 04:09:04;;;;;;;;;1.00;1.00;;;;;6.37;77.03;98239.22;5097156;27;68371;-61
2021/12/10 04:11:30;;;;;;;;;0.00;0.00;;;;;6.41;77.13;98234.50;5098059;27;45367;-61
2021/12/10 04:13:55;;;;;;;;;1.00;1.00;;;;;6.45;77.23;98245.41;5096979;27;69386;-61
2021/12/10 04:16:22;;;;;;;;;0.50;0.50;;;;;6.48;77.38;98234.63;5097521;27;57083;-61
2021/12/10 04:18:48;;;;;;;;;1.00;1.00;;;;;6.53;77.32;98237.56;5098042;27;45331;-61
2021/12/10 04:21:14;;;;;;;;;1.00;1.00;;;;;6.57;77.32;98235.44;5097979;27;45505;-62
2021/12/10 04:23:41;;;;;;;;;2.50;2.50;;;;;6.62;77.37;98236.56;5097850;27;45544;-61
2021/12/10 04:26:07;;;;;;;;;1.50;1.00;;;;;6.66;77.48;98232.66;5097651;27;45185;-62
2021/12/10 04:28:33;;;;;;;;;2.25;2.00;;;;;6.71;77.55;98229.53;5079731;27;45356;-61
2021/12/10 04:30:58;;;;;;;;;2.00;2.00;;;;;6.76;77.64;98231.66;5096600;27;45205;-61
2021/12/10 04:33:25;;;;;;;;;2.75;1.75;;;;;6.79;77.81;98228.69;5079484;27;46173;-61
2021/12/10 04:35:51;;;;;;;;;2.00;2.00;;;;;6.82;77.71;98231.78;5097621;27;45323;-61
2021/12/10 04:38:17;;;;;;;;;2.50;2.00;;;;;6.88;77.92;98239.91;5079497;27;45289;-62
2021/12/10 04:40:45;;;;;;;;;2.25;2.00;;;;;6.92;77.72;98235.97;5079427;27;45334;-61
2021/12/10 04:43:11;;;;;;;;;1.75;1.75;;;;;6.95;77.64;98246.88;5096754;27;45367;-61
2021/12/10 04:45:36;;;;;;;;;2.00;2.00;;;;;6.99;77.73;98244.78;5096633;27;69765;-62
2021/12/10 04:48:01;;;;;;;;;3.00;2.00;;;;;7.03;77.18;98242.63;5097633;27;45447;-61
2021/12/10 04:50:27;;;;;;;;;2.00;2.00;;;;;7.06;77.84;98244.91;5097257;27;46967;-61
2021/12/10 04:52:54;;;;;;;;;1.25;1.25;;;;;7.09;77.72;98247.16;5079010;27;46155;-61
2021/12/10 04:55:19;;;;;;;;;2.00;2.00;;;;;7.12;77.75;98244.22;5096207;27;45591;-61
2021/12/10 04:57:45;;;;;;;;;2.00;2.00;;;;;7.17;77.71;98244.53;5097438;27;45259;-62
2021/12/10 05:00:14;;;;;;;;;1.25;1.25;;;;;7.20;77.71;98245.97;5096553;27;63977;-62
2021/12/10 05:02:39;;;;;;;;;3.00;2.25;;;;;7.23;77.54;98248.25;5097215;27;45480;-61
2021/12/10 05:05:05;;;;;;;;;2.00;2.00;;;;;7.26;77.62;98253.13;5097266;27;45339;-61
2021/12/10 05:07:35;;;;;;;;;5.00;3.50;;;;;7.31;77.71;98250.00;5097313;27;45227;-62
2021/12/10 05:10:00;;;;;;;;;6.00;3.00;;;;;7.32;77.38;98247.22;5097164;27;45555;-61
2021/12/10 05:12:25;;;;;;;;;2.50;1.75;;;;;7.34;77.68;98253.09;5078056;27;71021;-61
2021/12/10 05:14:58;;;;;;;;;4.00;3.00;;;;;7.38;77.70;98245.72;5096167;27;70302;-62
2021/12/10 05:17:27;;;;;;;;;4.25;2.00;;;;;7.42;77.54;98249.59;5097368;27;45879;-62
2021/12/10 05:19:52;;;;;;;;;4.50;3.00;;;;;7.45;77.36;98246.66;5097097;27;45572;-62
2021/12/10 05:22:17;;;;;;;;;3.00;2.00;;;;;7.48;77.52;98251.53;5096971;27;46400;-61
2021/12/10 05:24:43;;;;;;;;;1.00;1.00;;;;;7.52;77.51;98255.44;5096344;27;62756;-61
2021/12/10 05:27:10;;;;;;;;;2.00;1.00;;;;;7.57;77.46;98260.94;5097016;27;45338;-61
2021/12/10 05:29:35;;;;;;;;;2.25;1.00;;;;;7.60;77.20;98265.03;5061990;27;45249;-61
2021/12/10 05:32:01;;;;;;;;;3.00;1.00;;;;;7.63;77.09;98264.69;5095864;27;72647;-61
2021/12/10 05:34:26;;;;;;;;;5.50;1.75;;;;;7.66;77.06;98273.97;5096861;27;45174;-61
2021/12/10 05:36:52;;;;;;;;;9.00;4.25;;;;;7.70;76.85;98281.28;5078813;27;45425;-61
2021/12/10 05:39:21;;;;;;;;;4.00;2.00;;;;;7.75;76.17;98283.41;5096668;27;45255;-62
2021/12/10 05:41:47;;;;;;;;;2.00;2.00;;;;;7.77;76.33;98284.03;5096600;27;45374;-61
2021/12/10 05:44:12;;;;;;;;;3.75;3.00;;;;;7.80;76.15;98282.84;5096439;27;46451;-62
2021/12/10 05:46:38;;;;;;;;;1.00;1.00;;;;;7.82;76.05;98301.81;5095867;27;63273;-61
2021/12/10 05:49:03;;;;;;;;;4.75;1.25;;;;;7.86;75.80;98295.25;5096674;27;45525;-61
2021/12/10 05:51:29;;;;;;;;;5.50;2.00;;;;;7.89;75.59;98300.13;5096461;27;45411;-62
2021/12/10 05:53:54;;;;;;;;;1.00;1.00;;;;;7.90;75.58;98303.56;5095749;27;66009;-61
2021/12/10 05:56:19;;;;;;;;;4.00;2.00;;;;;7.92;75.32;98299.78;5095678;27;61095;-62
2021/12/10 05:58:45;;;;;;;;;4.00;2.25;;;;;7.93;75.07;98311.88;5095787;27;66181;-62
2021/12/10 06:01:12;;;;;;;;;1.00;1.00;;;;;7.96;75.04;98310.69;5095556;27;66699;-62
2021/12/10 06:03:39;;;;;;;;;6.00;2.00;;;;;7.96;74.89;98315.91;5096467;27;45306;-61
2021/12/10 06:06:04;;;;;;;;;3.25;2.75;;;;;7.98;74.73;98329.63;5096698;27;45239;-61
2021/12/10 06:08:30;;;;;;;;;1.00;1.00;;;;;7.98;74.67;98335.69;5096435;27;45594;-62
2021/12/10 06:10:56;;;;;;;;;5.50;3.00;;;;;7.99;74.66;98336.50;5096104;27;46202;-61
2021/12/10 06:13:21;;;;;;;;;4.00;3.25;;;;;8.00;74.69;98330.28;5096151;27;45402;-61
2021/12/10 06:15:46;;;;;;;;;6.75;2.75;;;;;7.99;74.65;98336.50;5096934;27;62355;-61
2021/12/10 06:18:12;;;;;;;;;4.00;2.50;;;;;8.00;74.57;98340.75;5098469;27;59127;-61
2021/12/10 06:20:39;;;;;;;;;3.00;2.00;;;;;8.01;74.37;98344.97;5098341;27;69105;-62
2021/12/10 06:23:05;;;;;;;;;2.00;1.75;;;;;8.01;74.44;98343.19;5099337;27;45978;-61
2021/12/10 06:25:31;;;;;;;;;2.75;2.00;;;;;7.99;74.34;98358.25;5099112;27;51509;-62
2021/12/10 06:27:56;;;;;;;;;4.25;3.25;;;;;7.98;74.95;98364.47;5098268;27;45519;-61
2021/12/10 06:30:25;;;;;;;;;2.25;1.00;;;;;8.00;74.74;98362.50;5099192;27;46375;-62
2021/12/10 06:32:52;;;;;;;;;3.50;2.00;;;;;8.02;74.84;98362.31;5099196;27;45902;-61
2021/12/10 06:35:17;;;;;;;;;2.25;1.50;;;;;8.02;74.69;98363.13;5098208;27;45362;-62
2021/12/10 06:37:42;;;;;;;;;7.25;4.00;;;;;8.02;75.13;98370.97;5099313;27;45472;-62
2021/12/10 06:40:09;;;;;;;;;4.00;2.75;;;;;8.04;74.75;98370.78;5098883;27;45469;-61
2021/12/10 06:42:35;;;;;;;;;2.75;2.00;;;;;8.05;74.92;98382.88;5097524;27;50229;-61
2021/12/10 06:45:04;;;;;;;;;3.50;3.00;;;;;8.05;74.96;98382.88;5098477;27;62134;-62
2021/12/10 06:47:29;;;;;;;;;1.50;1.50;;;;;8.06;74.87;98383.72;5099155;27;45370;-62
2021/12/10 06:49:55;;;;;;;;;2.25;2.00;;;;;8.05;74.87;98398.56;5098945;27;48284;-61
2021/12/10 06:52:20;;;;;;;;;5.00;2.00;;;;;8.07;74.70;98399.22;5098134;27;66893;-62
2021/12/10 06:54:46;;;;;;;;;2.50;1.00;;;;;8.08;74.66;98405.28;5099293;27;45353;-61
2021/12/10 06:57:11;;;;;;;;;2.00;1.00;;;;;8.06;74.51;98412.47;5080233;27;59829;-62
2021/12/10 06:59:36;;;;;;;;;5.00;2.00;;;;;8.06;74.57;98418.50;5098268;27;62211;-62
2021/12/10 07:02:02;;;;;;;;;1.75;1.75;;;;;8.06;74.72;98431.59;5080673;27;45402;-61
2021/12/10 07:04:27;;;;;;;;;4.75;2.00;;;;;8.07;74.70;98433.22;5097912;27;45339;-62
2021/12/10 07:06:53;;;;;;;;;2.00;2.00;;;;;8.05;74.92;98437.00;5079893;27;67232;-62
2021/12/10 07:09:21;;;;;;;;;3.25;2.00;;;;;8.04;74.65;98444.03;5098703;27;45385;-61
2021/12/10 07:11:46;;;;;;;;;4.75;3.00;;;;;8.02;74.76;98446.00;5098613;27;45756;-61
2021/12/10 07:14:12;;;;;;;;;10.00;6.00;;;;;7.99;74.81;98454.19;5097399;27;45414;-61
2021/12/10 07:16:37;;;;;;;;;5.75;2.00;;;;;8.01;74.50;98452.22;5080377;27;45621;-62
2021/12/10 07:19:04;;;;;;;;;3.00;2.00;;;;;8.00;74.38;98469.72;5098221;27;45496;-62
2021/12/10 07:21:31;;;;;;;;;3.00;2.00;;;;;7.99;74.07;98469.88;5097109;27;45859;-61
2021/12/10 07:23:57;;;;;;;;;5.25;1.00;;;;;7.99;73.93;98490.78;5098621;27;45312;-61
2021/12/10 07:26:23;;;;;;;;;3.00;1.50;;;;;7.98;73.82;98489.16;5079362;27;45555;-61
2021/12/10 07:28:48;;;;;;;;;3.00;2.25;;;;;7.98;73.59;98492.59;5097024;27;67369;-61
2021/12/10 07:31:14;;;;;;;;;0.75;0.75;;;;;7.98;73.32;98507.47;5097519;27;69407;-61
2021/12/10 07:33:39;;;;;;;;;1.00;1.00;;;;;7.96;73.16;98517.28;5098476;27;45280;-62
2021/12/10 07:36:05;;;;;;;;;3.00;1.75;;;;;7.95;73.21;98513.06;5098468;27;45445;-62
2021/12/10 07:38:30;;;;;;;;;3.00;1.25;;;;;7.93;73.00;98525.50;5097006;27;45320;-62
2021/12/10 07:40:55;;;;;;;;;3.00;1.00;;;;;7.91;73.24;98530.88;5097370;27;65634;-62
2021/12/10 07:43:21;;;;;;;;;0.50;0.00;;;;;7.90;72.58;98551.97;5097436;27;61591;-61
2021/12/10 07:45:47;;;;;;;;;2.00;0.00;;;;;7.88;72.34;98533.81;5097148;27;45379;-62
2021/12/10 07:48:14;;;;;;;;;1.00;0.00;;;;;7.85;72.30;98550.69;5098041;27;45969;-61
2021/12/10 07:50:43;;;;;;;;;0.00;0.00;;;;;7.81;71.39;98564.22;5098018;27;45501;-62
2021/12/10 07:53:08;;;;;;;;;0.75;0.00;;;;;7.80;71.77;98566.03;5079973;27;45307;-61
2021/12/10 07:55:34;;;;;;;;;0.00;0.00;;;;;7.78;71.51;98580.25;5096847;27;47186;-61
2021/12/10 07:58:00;;;;;;;;;0.00;0.00;;;;;7.76;71.63;98576.97;5096599;27;45356;-62
2021/12/10 08:00:27;;;;;;;;;0.00;0.00;;;;;7.75;71.59;98581.41;5097993;27;45350;-62
2021/12/10 08:02:53;;;;;;;;;0.50;0.50;;;;;7.73;71.57;98591.22;5098148;27;45272;-61
2021/12/10 08:05:18;;;;;;;;;0.50;0.50;;;;;7.71;71.68;98587.94;5097359;27;63839;-61
2021/12/10 08:07:44;;;;;;;;;1.25;1.00;;;;;7.71;71.82;98596.59;5079452;27;46440;-62
2021/12/10 08:10:10;;;;;;;;;1.75;1.75;;;;;7.71;72.22;98607.06;5097650;27;45365;-61
2021/12/10 08:12:35;;;;;;;;;5.50;3.00;;;;;7.72;72.05;98616.53;5097736;27;45536;-62
2021/12/10 08:15:01;;;;;;;;;2.50;2.00;;;;;7.70;72.19;98615.88;5097128;27;65312;-61
2021/12/10 08:17:26;;;;;;;;;1.00;1.00;;;;;7.69;72.07;98626.50;5078179;27;48596;-61
2021/12/10 08:19:52;;;;;;;;;1.75;1.75;;;;;7.67;72.16;98624.06;5096777;27;63068;-61
2021/12/10 08:22:18;;;;;;;;;2.00;1.75;;;;;7.65;71.94;98627.81;5097771;27;45440;-62
2021/12/10 08:24:43;;;;;;;;;1.75;1.50;;;;;7.65;71.90;98630.44;5079499;27;45593;-61
2021/12/10 08:27:09;;;;;;;;;1.00;1.00;;;;;7.66;71.81;98639.91;5097262;27;45351;-61
2021/12/10 08:29:34;;;;;;;;;2.00;1.00;;;;;7.64;71.67;98650.53;5078646;27;48458;-62
2021/12/10 08:32:02;;;;;;;;;2.25;1.75;;;;;7.66;71.79;98656.41;5078724;27;45905;-62
2021/12/10 08:34:27;;;;;;;;;3.00;1.00;;;;;7.65;71.31;98661.78;5097083;27;45411;-62
2021/12/10 08:36:53;;;;;;;;;2.00;2.00;;;;;7.65;71.46;98665.25;5078052;27;46901;-62
2021/12/10 08:39:18;;;;;;;;;4.00;2.50;;;;;7.66;71.54;98668.66;5096869;27;45371;-60
2021/12/10 08:41:44;;;;;;;;;2.75;2.00;;;;;7.65;71.42;98680.09;5084142;27;47871;-61
2021/12/10 08:44:09;;;;;;;;;3.25;1.75;;;;;7.65;71.34;98677.47;5056574;28;45446;-61
2021/12/10 08:46:35;;;;;;;;;4.25;2.00;;;;;7.65;71.14;98685.31;5054840;28;45655;-62
2021/12/10 08:49:00;;;;;;;;;2.00;2.00;;;;;7.64;70.90;98694.97;5045711;28;45474;-62
2021/12/10 08:51:29;;;;;;;;;3.50;2.00;;;;;7.62;70.80;98696.94;5054591;28;57401;-62
2021/12/10 08:53:55;;;;;;;;;2.50;1.00;;;;;7.63;70.39;98697.75;5059183;28;45508;-62
2021/12/10 08:56:21;;;;;;;;;5.00;1.75;;;;;7.62;70.49;98696.94;5037554;28;53479;-61
2021/12/10 08:58:47;;;;;;;;;0.25;0.00;;;;;7.62;70.04;98717.00;5055073;28;45240;-62
2021/12/10 09:01:17;;;;;;;;;1.50;1.00;;;;;7.61;70.06;98720.59;5054517;28;45511;-61
2021/12/10 09:03:44;;;;;;;;;3.50;1.00;;;;;7.61;69.89;98724.06;5055164;28;45490;-61
2021/12/10 09:06:10;;;;;;;;;3.00;0.50;;;;;7.62;69.88;98732.69;5055057;28;46186;-62
2021/12/10 09:08:35;;;;;;;;;1.50;1.00;;;;;7.59;69.50;98733.84;5037060;28;45273;-62
2021/12/10 09:11:01;;;;;;;;;1.00;1.00;;;;;7.62;69.44;98732.69;5036787;28;45590;-61
2021/12/10 09:13:26;;;;;;;;;2.50;1.00;;;;;7.62;69.38;98743.16;5054461;28;54471;-62
2021/12/10 09:15:56;;;;;;;;;5.75;1.75;;;;;7.63;69.40;98747.41;5053384;28;72761;-62
2021/12/10 09:18:22;;;;;;;;;3.00;1.25;;;;;7.64;69.45;98749.03;5044671;28;45474;-62
2021/12/10 09:20:48;;;;;;;;;3.25;2.00;;;;;7.64;69.18;98755.09;5054920;28;45416;-63
2021/12/10 09:23:16;;;;;;;;;3.25;1.75;;;;;7.64;68.88;98751.66;5055156;28;45485;-61
2021/12/10 09:25:42;;;;;;;;;2.00;2.00;;;;;7.64;68.73;98767.34;5062173;28;45640;-62
2021/12/10 09:28:07;;;;;;;;;2.00;1.00;;;;;7.63;68.67;98768.31;5055033;28;45423;-61
2021/12/10 09:30:33;;;;;;;;;1.25;1.25;;;;;7.59;69.14;98783.50;5053970;28;45434;-62
2021/12/10 09:32:59;;;;;;;;;3.00;2.00;;;;;7.57;69.63;98781.03;5036700;28;45603;-61
2021/12/10 09:35:26;;;;;;;;;4.50;1.00;;;;;7.59;69.99;98783.50;5054573;28;46620;-61
2021/12/10 09:37:51;;;;;;;;;21.25;19.00;;;;;7.64;70.13;98785.63;5036704;28;45924;-61
2021/12/10 09:40:33;;;;;;;;;3.00;1.00;;;;;7.73;70.45;98790.69;5043897;28;65852;-62
2021/12/10 09:42:58;;;;;;;;;1.00;1.00;;;;;7.87;70.15;98798.91;5058793;28;45455;-62
2021/12/10 09:45:25;;;;;;;;;3.50;2.00;;;;;7.96;69.92;98803.16;5037065;28;47737;-61
2021/12/10 09:47:51;;;;;;;;;3.25;3.00;;;;;8.02;69.62;98806.91;5047843;28;45578;-61
2021/12/10 09:50:17;;;;;;;;;5.00;1.00;;;;;8.02;68.94;98822.63;5055352;28;45399;-63
2021/12/10 09:52:43;;;;;;;;;5.50;3.00;;;;;7.99;68.59;98815.91;5061555;28;45561;-61
2021/12/10 09:55:10;;;;;;;;;6.50;5.25;;;;;7.97;68.50;98825.72;5058963;28;46533;-61
2021/12/10 09:57:36;;;;;;;;;2.00;2.00;;;;;7.96;68.06;98824.09;5057809;28;45797;-62
2021/12/10 10:00:06;;;;;;;;;2.00;2.00;;;;;7.90;68.04;98837.81;5065588;28;45225;-62
2021/12/10 10:02:32;;;;;;;;;2.75;1.50;;;;;7.89;67.90;98835.38;5073258;28;45486;-62
2021/12/10 10:04:57;;;;;;;;;0.25;0.00;;;;;7.84;67.96;98839.28;5058092;28;46068;-61
2021/12/10 10:07:25;;;;;;;;;4.00;3.00;;;;;7.83;68.00;98842.88;5056735;28;64391;-61
2021/12/10 10:09:53;;;;;;;;;4.50;2.50;;;;;7.88;68.33;98847.59;5057747;28;45273;-61
2021/12/10 10:12:24;;;;;;;;;0.25;0.25;;;;;7.98;68.57;98860.53;5039995;28;45429;-63
2021/12/10 10:14:49;;;;;;;;;3.25;2.50;;;;;8.13;68.75;98856.31;5034564;28;45516;-61
2021/12/10 10:17:16;;;;;;;;;6.00;3.00;;;;;8.29;68.26;98863.34;5071780;28;68269;-62
2021/12/10 10:19:41;;;;;;;;;3.25;1.25;;;;;8.46;68.53;98872.06;5069688;28;45449;-61
2021/12/10 10:22:08;;;;;;;;;6.25;3.00;;;;;8.66;67.99;98876.97;5057058;28;58523;-62
2021/12/10 10:24:33;;;;;;;;;3.25;2.00;;;;;8.83;67.33;98877.75;5062227;28;48489;-62
2021/12/10 10:27:07;;;;;;;;;4.00;2.00;;;;;9.01;66.91;98890.66;5058719;28;45447;-62
2021/12/10 10:29:34;;;;;;;;;11.75;9.75;;;;;9.20;66.72;98891.28;5053233;28;45403;-61
2021/12/10 10:32:09;;;;;;;;;4.50;2.25;;;;;9.37;66.13;98889.44;5046529;28;45566;-62
2021/12/10 10:34:36;;;;;;;;;3.00;3.00;;;;;9.53;65.35;98890.38;5058219;28;46474;-63
2021/12/10 10:37:02;;;;;;;;;4.25;2.00;;;;;9.60;63.33;98899.19;5031298;28;45941;-63
2021/12/10 10:39:32;;;;;;;;;3.00;2.00;;;;;9.61;62.06;98892.97;5047876;28;45404;-62
2021/12/10 10:41:58;;;;;;;;;1.75;1.00;;;;;9.59;61.71;98903.59;5060266;27;45360;-62
2021/12/10 10:44:24;;;;;;;;;4.50;1.25;;;;;9.56;60.93;98898.69;5077428;27;45439;-61
2021/12/10 10:46:52;;;;;;;;;4.50;1.00;;;;;9.55;61.10;98904.94;5077550;27;45619;-62
2021/12/10 10:49:43;;;;;;;;;1.75;1.00;;;;;9.54;61.07;98908.53;5077703;27;45469;-61
2021/12/10 10:52:20;;;;;;;;;2.75;2.00;;;;;9.54;60.36;98910.38;5080451;27;45331;-62
2021/12/10 10:54:45;;;;;;;;;5.25;1.50;;;;;9.48;59.05;98915.28;5081193;27;45491;-61
2021/12/10 10:57:19;;;;;;;;;4.00;1.25;;;;;9.47;60.45;98918.91;5059100;27;45510;-62
2021/12/10 10:59:47;;;;;;;;;2.50;1.00;;;;;9.45;59.98;98922.69;5089863;27;46068;-61
2021/12/10 11:02:12;;;;;;;;;2.00;2.00;;;;;9.45;60.08;98918.25;5093918;27;45545;-62
2021/12/10 11:04:43;;;;;;;;;1.00;0.00;;;;;9.42;59.17;98928.25;5081486;27;45367;-61
2021/12/10 11:07:14;;;;;;;;;2.25;2.00;;;;;9.38;59.50;98930.38;5076983;27;45177;-63
2021/12/10 11:09:52;;;;;;;;;3.75;1.00;;;;;9.37;59.18;98934.00;5076281;27;45399;-61
2021/12/10 11:12:28;;;;;;;;;6.50;1.00;;;;;9.34;58.61;98939.56;5086124;27;45495;-61
2021/12/10 11:14:56;;;;;;;;;20.75;15.25;;;;;9.33;58.55;98930.06;5075755;27;45628;-62
2021/12/10 11:17:47;;;;;;;;;4.50;2.00;;;;;9.31;58.44;98942.53;5086759;27;45847;-62
2021/12/10 11:20:43;;;;;;;;;3.00;2.00;;;;;9.31;58.72;98938.13;5090044;27;45224;-62
2021/12/10 11:23:09;;;;;;;;;1.50;1.00;;;;;9.29;57.79;98934.84;5073691;27;45414;-61
2021/12/10 11:25:34;;;;;;;;;4.25;0.00;;;;;9.25;57.35;98936.16;5090869;27;46516;-62
2021/12/10 11:28:05;;;;;;;;;1.00;1.00;;;;;9.26;57.73;98947.47;5077455;27;45375;-63
2021/12/10 11:30:31;;;;;;;;;1.00;1.00;;;;;9.25;57.05;98951.09;5085233;27;45415;-63
2021/12/10 11:33:06;;;;;;;;;3.25;2.00;;;;;9.22;57.16;98946.97;5080854;27;45534;-62
2021/12/10 11:35:37;;;;;;;;;3.00;2.00;;;;;9.22;57.67;98967.13;5083913;27;46384;-61
2021/12/10 11:38:16;;;;;;;;;1.25;1.00;;;;;9.22;57.38;98964.53;5079636;27;45339;-62
2021/12/10 11:40:52;;;;;;;;;3.00;1.00;;;;;9.19;57.40;98970.91;5078832;27;45265;-62
2021/12/10 11:46:46;;;;;;;;;2.25;1.00;;;;;9.09;57.32;98978.94;5059424;28;45359;-61
2021/12/10 11:49:27;;;;;;;;;3.75;1.00;;;;;9.06;57.36;98980.06;5048630;28;45510;-62
2021/12/10 11:52:08;;;;;;;;;1.00;1.00;;;;;9.05;56.94;98982.88;5056159;28;45396;-61
2021/12/10 11:54:38;;;;;;;;;3.50;1.00;;;;;9.01;56.59;98979.75;5056459;28;45384;-61
2021/12/10 11:57:21;;;;;;;;;6.00;4.00;;;;;8.96;56.81;98995.16;5062513;28;46167;-62